East Norwich, New York
Current Conditions -  °F | °C
As of 8:53 AM on Saturday 01 Nov 2014 (Local Time) from KFRG Reporting Station
Moderate Rain Moderate Rain  
Wind Chill: 39°   Ceiling: 6000
Heat Index: 46°   Visibility: 8mi
Dew Point: 37°   Wind: 16mph
Humidity: 71%   Direction: 10°N
Pressure: 29.84"   Gusts: 23mph
Location:  40.85°N, 73.53°W
Report Text: KFRG 011253Z 01014G20KT 8SM RA OVC060 08/03 A2984 RMK AO2 RAB09 SLP104 P0003 T00780028
Loading
Personal Weather Stations






























Interactive Weather Map New forecast layout! Learn more

10-Day Weather Forecast

Advertisements
Track Severe Weather on mobile